Time;durP1;ratioP1;P1;durP2;ratioP2;P2;SDS_P1;SDS_P2;PMS_P1;PMS_P2;Temp;Humidity;BMP_temperature;BMP_pressure;BME280_temperature;BME280_humidity;BME280_pressure;Samples;Min_cycle;Max_cycle;Signal;HPM_P1;HPM_P2
2023/06/29 00:01:00;;;;;;;17.50;10.70;;;;;;;15.03;100.00;99618.86;109269;1254;73713;-63
2023/06/29 00:03:46;;;;;;;15.30;9.50;;;;;;;15.03;100.00;99619.63;109277;1254;57693;-62
2023/06/29 00:06:36;;;;;;;14.70;9.50;;;;;;;15.03;100.00;99622.61;109305;1254;59037;-63
2023/06/29 00:09:23;;;;;;;15.80;9.60;;;;;;;15.04;100.00;99621.02;109293;1254;71720;-63
2023/06/29 00:12:09;;;;;;;16.60;10.60;;;;;;;15.03;100.00;99621.39;109230;1254;66473;-65
2023/06/29 00:14:56;;;;;;;15.00;10.10;;;;;;;15.04;100.00;99622.05;109122;1258;72898;-66
2023/06/29 00:17:47;;;;;;;17.00;10.40;;;;;;;15.03;100.00;99615.31;109274;1254;58289;-66
2023/06/29 00:20:34;;;;;;;13.10;9.20;;;;;;;15.03;100.00;99615.27;109189;1256;60295;-66
2023/06/29 00:23:21;;;;;;;15.80;9.20;;;;;;;15.03;100.00;99618.55;109231;1254;73926;-64
2023/06/29 00:26:08;;;;;;;13.60;8.80;;;;;;;15.02;100.00;99616.11;109294;1254;68821;-65
2023/06/29 00:28:56;;;;;;;13.90;8.90;;;;;;;15.02;100.00;99618.41;109282;1254;71279;-65
2023/06/29 00:31:43;;;;;;;14.20;9.20;;;;;;;15.02;100.00;99616.33;109493;1254;59482;-65
2023/06/29 00:34:31;;;;;;;15.80;9.40;;;;;;;15.01;100.00;99614.09;109184;1254;59912;-66
2023/06/29 00:37:19;;;;;;;12.90;8.20;;;;;;;15.00;100.00;99615.13;109278;1254;72966;-64
2023/06/29 00:40:08;;;;;;;12.10;8.60;;;;;;;15.00;100.00;99615.48;109256;1254;66839;-65
2023/06/29 00:42:55;;;;;;;13.30;8.80;;;;;;;15.01;100.00;99613.45;109424;1254;71313;-64
2023/06/29 00:45:43;;;;;;;12.90;8.10;;;;;;;15.00;100.00;99613.52;109225;1254;59616;-64
2023/06/29 00:48:30;;;;;;;14.80;8.70;;;;;;;14.98;100.00;99618.09;109473;1254;60135;-66
2023/06/29 00:51:18;;;;;;;14.50;8.80;;;;;;;14.98;100.00;99616.52;109467;1254;72892;-67
2023/06/29 00:54:05;;;;;;;13.20;9.00;;;;;;;14.98;100.00;99614.04;109228;1254;67751;-64
2023/06/29 00:56:52;;;;;;;19.40;9.10;;;;;;;14.97;100.00;99607.91;109252;1254;71333;-66
2023/06/29 00:59:38;;;;;;;13.90;8.20;;;;;;;14.96;100.00;99612.30;109444;1254;58484;-65
2023/06/29 01:02:29;;;;;;;14.10;8.70;;;;;;;14.94;100.00;99608.73;109234;1254;61386;-66
2023/06/29 01:05:17;;;;;;;13.90;8.90;;;;;;;14.93;100.00;99608.41;109261;1254;74212;-67
2023/06/29 01:08:19;;;;;;;15.10;9.50;;;;;;;14.90;100.00;99606.46;109365;1254;67914;-66
2023/06/29 01:11:06;;;;;;;14.50;8.80;;;;;;;14.91;100.00;99609.73;109213;1254;72019;-65
2023/06/29 01:13:55;;;;;;;17.40;8.90;;;;;;;14.90;100.00;99610.23;109258;1254;59845;-65
2023/06/29 01:16:43;;;;;;;11.60;8.00;;;;;;;14.88;100.00;99611.27;109293;1254;58083;-63
2023/06/29 01:19:50;;;;;;;12.70;8.70;;;;;;;14.86;100.00;99610.42;109393;1254;72762;-64
2023/06/29 01:22:44;;;;;;;12.50;7.90;;;;;;;14.84;100.00;99611.75;109455;1254;67614;-66
2023/06/29 01:25:32;;;;;;;12.70;7.30;;;;;;;14.83;100.00;99604.30;109272;1254;71522;-66
2023/06/29 01:28:19;;;;;;;12.60;8.20;;;;;;;14.81;100.00;99603.46;109252;1254;60436;-66
2023/06/29 01:31:05;;;;;;;14.80;9.50;;;;;;;14.80;100.00;99598.36;109460;1254;59127;-65
2023/06/29 01:33:53;;;;;;;15.20;9.00;;;;;;;14.80;100.00;99592.86;109244;1258;72716;-62
2023/06/29 01:36:44;;;;;;;13.20;8.90;;;;;;;14.79;100.00;99589.79;109385;1254;66711;-66
2023/06/29 01:39:42;;;;;;;15.10;9.20;;;;;;;14.78;100.00;99585.02;109238;1254;72624;-63
2023/06/29 01:42:32;;;;;;;13.10;8.90;;;;;;;14.76;100.00;99590.36;109228;1254;59564;-66
2023/06/29 01:45:21;;;;;;;15.20;8.70;;;;;;;14.74;100.00;99587.52;109245;1254;59338;-66
2023/06/29 01:48:09;;;;;;;15.70;9.30;;;;;;;14.73;100.00;99588.42;109261;1254;73937;-66
2023/06/29 01:50:56;;;;;;;15.50;9.70;;;;;;;14.71;100.00;99584.88;109348;1254;66353;-64
2023/06/29 01:53:43;;;;;;;16.40;9.10;;;;;;;14.68;100.00;99590.13;109353;1254;72677;-64
2023/06/29 01:56:30;;;;;;;15.70;10.00;;;;;;;14.66;100.00;99586.09;109244;1254;59492;-64
2023/06/29 01:59:17;;;;;;;14.30;8.90;;;;;;;14.64;100.00;99588.05;109293;1254;58912;-64
2023/06/29 02:02:05;;;;;;;17.00;10.50;;;;;;;14.63;100.00;99588.52;109289;1254;71717;-64
2023/06/29 02:04:51;;;;;;;14.90;10.00;;;;;;;14.62;100.00;99588.42;109229;1254;67791;-64
2023/06/29 02:07:38;;;;;;;15.70;10.50;;;;;;;14.61;100.00;99587.20;109463;1254;73074;-64
2023/06/29 02:10:24;;;;;;;15.50;10.10;;;;;;;14.60;100.00;99586.30;109202;1254;58128;-66
2023/06/29 02:13:11;;;;;;;15.40;9.40;;;;;;;14.59;100.00;99585.62;109180;1254;57724;-62
2023/06/29 02:15:58;;;;;;;16.90;10.40;;;;;;;14.57;100.00;99586.57;109254;1254;72902;-64
2023/06/29 02:18:44;;;;;;;14.80;10.40;;;;;;;14.56;100.00;99586.69;109396;1256;66706;-63
2023/06/29 02:21:31;;;;;;;17.10;10.40;;;;;;;14.56;100.00;99588.84;109250;1254;71096;-65
2023/06/29 02:24:17;;;;;;;15.30;10.00;;;;;;;14.55;100.00;99586.75;109190;1254;58615;-63
2023/06/29 02:27:04;;;;;;;16.90;10.40;;;;;;;14.54;100.00;99590.60;109429;1254;60313;-63
2023/06/29 02:29:51;;;;;;;15.80;10.90;;;;;;;14.53;100.00;99588.21;109405;1254;71576;-65
2023/06/29 02:32:37;;;;;;;17.80;10.30;;;;;;;14.53;100.00;99584.15;109247;1254;66870;-63
2023/06/29 02:35:24;;;;;;;17.60;10.50;;;;;;;14.52;100.00;99582.34;109399;1254;72678;-66
2023/06/29 02:38:11;;;;;;;18.20;11.30;;;;;;;14.51;100.00;99583.79;109222;1254;60499;-64
2023/06/29 02:40:57;;;;;;;18.10;10.30;;;;;;;14.52;100.00;99584.60;109194;1254;60339;-63
2023/06/29 02:43:44;;;;;;;15.20;8.50;;;;;;;14.53;100.00;99584.30;109246;1254;72958;-64
2023/06/29 02:46:30;;;;;;;15.70;10.10;;;;;;;14.53;100.00;99587.14;109209;1254;67738;-64
2023/06/29 02:49:17;;;;;;;19.70;11.10;;;;;;;14.55;100.00;99585.17;109270;1254;71890;-63
2023/06/29 02:52:05;;;;;;;18.00;10.60;;;;;;;14.55;100.00;99581.41;109322;1254;59491;-65
2023/06/29 02:54:52;;;;;;;18.90;10.10;;;;;;;14.58;100.00;99585.73;109290;1254;60309;-63
2023/06/29 02:57:38;;;;;;;17.00;10.70;;;;;;;14.60;100.00;99583.54;109233;1254;72199;-65
2023/06/29 03:00:25;;;;;;;17.70;10.60;;;;;;;14.64;100.00;99584.30;109264;1254;67877;-64
2023/06/29 03:03:13;;;;;;;19.60;10.80;;;;;;;14.67;100.00;99575.38;109165;1254;72763;-65
2023/06/29 03:06:00;;;;;;;20.60;10.60;;;;;;;14.70;100.00;99577.75;109090;1260;60788;-65
2023/06/29 03:08:48;;;;;;;18.20;11.20;;;;;;;14.75;100.00;99577.97;109412;1254;58735;-63
2023/06/29 03:11:35;;;;;;;19.10;10.70;;;;;;;14.78;100.00;99581.21;109179;1254;72959;-64
2023/06/29 03:14:22;;;;;;;20.30;10.70;;;;;;;14.84;100.00;99586.41;109270;1254;66800;-65
2023/06/29 03:17:08;;;;;;;19.90;10.60;;;;;;;14.90;100.00;99589.11;109222;1254;71373;-64
2023/06/29 03:19:55;;;;;;;16.40;9.80;;;;;;;14.97;100.00;99587.54;109319;1260;58277;-66
2023/06/29 03:22:42;;;;;;;18.20;10.20;;;;;;;15.03;100.00;99590.99;109284;1254;58791;-63
2023/06/29 03:25:28;;;;;;;19.60;11.80;;;;;;;15.12;100.00;99593.65;109474;1254;73076;-62
2023/06/29 03:28:15;;;;;;;19.00;11.40;;;;;;;15.19;100.00;99595.60;109292;1254;67915;-63
2023/06/29 03:31:01;;;;;;;17.90;11.00;;;;;;;15.27;100.00;99595.17;109248;1254;72763;-64
2023/06/29 03:33:47;;;;;;;17.40;9.90;;;;;;;15.36;100.00;99598.14;109155;1254;58057;-66
2023/06/29 03:36:34;;;;;;;17.80;10.10;;;;;;;15.46;100.00;99597.97;109408;1254;59250;-68
2023/06/29 03:39:21;;;;;;;20.90;11.20;;;;;;;15.53;100.00;99595.85;109113;1254;72945;-66
2023/06/29 03:42:07;;;;;;;17.20;9.20;;;;;;;15.59;100.00;99592.32;109435;1254;66433;-64
2023/06/29 03:44:53;;;;;;;15.20;9.20;;;;;;;15.65;100.00;99592.03;109402;1254;72564;-64
2023/06/29 03:47:40;;;;;;;17.20;9.60;;;;;;;15.71;100.00;99592.73;109426;1254;57279;-64
2023/06/29 03:50:26;;;;;;;16.80;8.70;;;;;;;15.77;100.00;99591.69;109147;1254;58843;-68
2023/06/29 03:53:13;;;;;;;17.60;9.00;;;;;;;15.84;100.00;99592.95;109433;1254;73079;-63
2023/06/29 03:55:59;;;;;;;15.30;9.30;;;;;;;15.90;100.00;99592.96;109170;1254;67872;-65
2023/06/29 03:58:48;;;;;;;17.40;9.70;;;;;;;15.95;100.00;99591.35;109214;1254;72146;-65
2023/06/29 04:01:34;;;;;;;15.40;9.50;;;;;;;16.00;100.00;99589.24;109374;1254;59354;-66
2023/06/29 04:04:21;;;;;;;16.50;8.70;;;;;;;16.05;100.00;99588.32;109212;1254;60241;-65
2023/06/29 04:07:07;;;;;;;15.30;9.00;;;;;;;16.11;100.00;99591.96;109366;1254;72773;-65
2023/06/29 04:09:54;;;;;;;16.10;8.90;;;;;;;16.18;100.00;99586.41;109433;1254;67948;-65
2023/06/29 04:12:40;;;;;;;17.30;8.40;;;;;;;16.24;100.00;99588.65;109311;1254;72624;-66
2023/06/29 04:15:28;;;;;;;15.60;8.50;;;;;;;16.33;100.00;99591.23;109181;1254;58580;-65
2023/06/29 04:18:14;;;;;;;16.70;8.70;;;;;;;16.39;100.00;99592.59;109296;1254;58833;-64
2023/06/29 04:21:00;;;;;;;15.20;8.40;;;;;;;16.47;100.00;99593.78;109373;1254;71986;-67
2023/06/29 04:23:48;;;;;;;14.60;8.40;;;;;;;16.59;100.00;99598.77;109238;1254;67927;-67
2023/06/29 04:26:35;;;;;;;14.10;7.80;;;;;;;16.73;99.93;99597.00;109257;1254;73569;-63
2023/06/29 04:29:21;;;;;;;14.70;7.50;;;;;;;16.89;99.22;99595.10;109418;1254;59665;-65
2023/06/29 04:32:08;;;;;;;12.80;7.40;;;;;;;17.06;98.02;99592.48;109407;1254;58985;-67
2023/06/29 04:34:55;;;;;;;14.00;6.10;;;;;;;17.24;96.90;99588.83;109232;1254;71237;-66
2023/06/29 04:37:42;;;;;;;11.50;6.70;;;;;;;17.51;95.29;99589.91;109439;1254;67724;-66
2023/06/29 04:40:28;;;;;;;14.40;5.90;;;;;;;17.85;93.51;99587.61;109423;1254;72725;-66
2023/06/29 04:43:15;;;;;;;11.40;5.70;;;;;;;18.26;91.83;99589.18;109353;1254;58724;-65
2023/06/29 04:46:01;;;;;;;9.90;5.10;;;;;;;18.71;89.40;99585.09;109160;1254;59645;-63
2023/06/29 04:48:49;;;;;;;11.80;5.00;;;;;;;19.20;86.08;99586.73;109424;1254;73152;-66
2023/06/29 04:51:36;;;;;;;14.70;5.40;;;;;;;19.72;83.56;99588.71;109442;1254;67788;-64
2023/06/29 04:54:23;;;;;;;11.90;5.00;;;;;;;20.23;79.96;99583.84;109210;1254;73664;-68
2023/06/29 04:57:12;;;;;;;9.90;4.40;;;;;;;20.81;77.96;99586.25;109212;1254;57291;-65
2023/06/29 04:59:58;;;;;;;8.90;4.20;;;;;;;21.34;73.32;99585.60;109362;1254;60549;-73
2023/06/29 05:02:45;;;;;;;10.60;4.70;;;;;;;21.41;71.81;99585.96;109188;1254;72980;-72
2023/06/29 05:05:32;;;;;;;12.50;4.30;;;;;;;21.34;71.33;99586.86;109223;1256;66735;-73
2023/06/29 05:08:18;;;;;;;12.00;4.20;;;;;;;21.27;71.51;99586.65;109196;1256;72752;-71
2023/06/29 05:11:06;;;;;;;9.20;4.50;;;;;;;21.23;72.09;99584.88;109246;1254;57812;-69
2023/06/29 05:13:52;;;;;;;12.30;4.30;;;;;;;21.18;71.96;99586.19;109314;1254;59124;-73
2023/06/29 05:16:40;;;;;;;10.00;4.30;;;;;;;21.11;72.73;99584.45;109237;1254;72867;-72
2023/06/29 05:19:27;;;;;;;11.80;4.30;;;;;;;21.10;72.73;99583.70;109160;1254;66825;-74
2023/06/29 05:22:14;;;;;;;13.30;5.20;;;;;;;21.06;73.03;99589.50;109309;1254;71690;-74
2023/06/29 05:25:00;;;;;;;10.40;4.20;;;;;;;20.93;73.18;99588.16;109121;1254;57904;-70
2023/06/29 05:27:47;;;;;;;11.10;4.40;;;;;;;20.77;73.22;99584.63;109186;1254;60479;-71
2023/06/29 05:30:34;;;;;;;9.70;4.30;;;;;;;20.60;74.10;99585.75;109279;1254;72872;-71
2023/06/29 05:33:21;;;;;;;12.20;4.60;;;;;;;20.38;74.63;99584.45;109246;1254;68100;-71
2023/06/29 05:36:09;;;;;;;10.50;4.50;;;;;;;20.27;75.35;99589.52;109422;1254;72099;-71
2023/06/29 05:38:56;;;;;;;14.60;4.80;;;;;;;20.19;75.99;99595.48;109265;1254;57282;-72
2023/06/29 05:41:42;;;;;;;10.20;4.70;;;;;;;20.06;76.45;99593.23;109205;1254;60093;-71
2023/06/29 05:44:29;;;;;;;10.00;4.70;;;;;;;20.03;77.08;99596.57;109290;1254;73175;-70
2023/06/29 05:47:16;;;;;;;10.80;4.90;;;;;;;20.00;77.49;99594.13;109156;1254;67757;-69
2023/06/29 05:50:06;;;;;;;11.30;4.70;;;;;;;19.98;77.57;99594.56;109187;1254;73262;-70
2023/06/29 05:52:53;;;;;;;10.20;4.60;;;;;;;19.95;77.47;99597.64;109295;1254;60671;-73
2023/06/29 05:55:39;;;;;;;8.60;4.20;;;;;;;19.86;77.72;99597.02;109284;1254;60132;-72
2023/06/29 05:58:25;;;;;;;9.60;4.40;;;;;;;19.82;77.86;99598.59;109276;1257;73088;-72
2023/06/29 06:01:12;;;;;;;9.40;4.40;;;;;;;19.78;77.92;99601.71;109295;1254;66451;-74
2023/06/29 06:03:59;;;;;;;11.80;4.60;;;;;;;19.79;77.96;99598.57;109206;1254;73018;-70
2023/06/29 06:06:46;;;;;;;10.00;4.50;;;;;;;19.81;77.83;99600.95;109162;1254;57263;-72
2023/06/29 06:09:33;;;;;;;10.90;4.40;;;;;;;19.88;77.97;99601.61;109150;1255;59164;-71
2023/06/29 06:12:20;;;;;;;10.00;4.20;;;;;;;19.97;77.62;99604.40;109170;1254;72928;-71
2023/06/29 06:15:11;;;;;;;12.20;4.50;;;;;;;20.05;77.42;99600.58;109267;1254;67627;-69
2023/06/29 06:17:57;;;;;;;10.10;4.50;;;;;;;20.15;77.14;99603.21;109366;1254;72788;-69
2023/06/29 06:20:44;;;;;;;13.80;4.30;;;;;;;20.25;76.41;99601.63;109210;1256;57351;-69
2023/06/29 06:23:31;;;;;;;8.90;4.00;;;;;;;20.34;76.21;99604.63;109198;1254;59748;-72
2023/06/29 06:26:20;;;;;;;10.40;4.00;;;;;;;20.42;75.66;99605.41;109315;1254;74039;-69
2023/06/29 06:29:06;;;;;;;10.90;4.20;;;;;;;20.56;75.37;99610.17;109290;1256;67692;-68
2023/06/29 06:31:54;;;;;;;9.40;4.40;;;;;;;20.60;74.22;99608.09;109261;1254;71362;-69
2023/06/29 06:34:41;;;;;;;9.20;3.60;;;;;;;20.68;74.10;99608.54;109355;1254;57323;-70
2023/06/29 06:37:28;;;;;;;9.30;4.60;;;;;;;20.74;72.93;99607.92;109475;1254;60357;-70
2023/06/29 06:40:15;;;;;;;9.60;4.40;;;;;;;20.83;72.24;99607.36;109460;1254;73184;-68
2023/06/29 06:43:03;;;;;;;8.90;4.10;;;;;;;21.00;71.59;99607.45;109242;1255;67801;-69
2023/06/29 06:45:52;;;;;;;9.40;4.50;;;;;;;21.27;70.94;99602.35;109292;1254;71416;-69
2023/06/29 06:48:39;;;;;;;9.20;3.40;;;;;;;21.76;69.26;99606.06;109210;1254;57997;-68
2023/06/29 06:51:27;;;;;;;10.10;4.00;;;;;;;22.19;68.17;99606.20;109319;1254;60238;-72
2023/06/29 06:54:14;;;;;;;10.40;4.70;;;;;;;22.84;66.54;99603.89;109334;1254;73165;-70
2023/06/29 06:57:01;;;;;;;9.70;3.50;;;;;;;23.67;61.29;99603.70;109315;1255;67761;-72
2023/06/29 06:59:48;;;;;;;8.60;3.10;;;;;;;24.02;58.50;99599.20;109163;1255;70742;-70
2023/06/29 07:02:35;;;;;;;9.90;3.10;;;;;;;24.37;58.75;99600.74;109194;1255;57362;-71
2023/06/29 07:05:22;;;;;;;7.00;2.60;;;;;;;24.66;56.75;99602.52;109327;1254;59276;-71
2023/06/29 07:08:08;;;;;;;10.30;3.40;;;;;;;24.89;55.39;99599.56;109472;1254;72907;-76
2023/06/29 07:10:55;;;;;;;7.80;2.90;;;;;;;25.00;54.37;99594.05;109213;1254;66629;-73
2023/06/29 07:13:42;;;;;;;8.00;2.90;;;;;;;25.11;52.52;99597.41;109254;1255;72001;-71
2023/06/29 07:16:29;;;;;;;6.40;2.20;;;;;;;25.24;50.38;99598.40;108916;1258;58317;-73
2023/06/29 07:19:16;;;;;;;7.50;2.60;;;;;;;25.55;49.12;99598.21;109066;1258;60176;-70
2023/06/29 07:22:05;;;;;;;7.90;2.40;;;;;;;25.62;47.86;99597.91;109069;1257;73458;-71
2023/06/29 07:24:57;;;;;;;8.60;2.30;;;;;;;25.60;48.18;99597.27;109061;1257;67713;-69
2023/06/29 07:27:44;;;;;;;7.40;2.30;;;;;;;25.85;48.20;99600.55;109037;1259;72607;-72
2023/06/29 07:30:30;;;;;;;7.70;2.60;;;;;;;25.88;47.85;99594.42;108986;1258;58926;-72
2023/06/29 07:33:17;;;;;;;7.60;2.90;;;;;;;26.41;46.97;99596.34;109097;1258;60205;-74
2023/06/29 07:36:04;;;;;;;6.70;2.40;;;;;;;27.38;45.28;99586.45;109078;1259;71717;-72
2023/06/29 07:38:52;;;;;;;6.70;2.30;;;;;;;29.00;41.96;99581.26;109028;1258;68002;-73
2023/06/29 07:41:39;;;;;;;8.80;2.20;;;;;;;29.86;40.51;99581.88;108978;1259;73093;-72
2023/06/29 07:44:26;;;;;;;7.80;2.30;;;;;;;30.71;37.52;99582.42;108939;1259;57514;-71
2023/06/29 07:47:13;;;;;;;6.10;1.90;;;;;;;31.39;35.76;99572.57;109138;1255;58736;-73
2023/06/29 07:50:01;;;;;;;12.00;2.30;;;;;;;31.54;34.43;99565.27;109314;1256;71806;-71
2023/06/29 07:52:47;;;;;;;8.50;2.20;;;;;;;32.16;33.39;99569.40;109224;1254;67800;-76
2023/06/29 07:55:34;;;;;;;7.10;2.00;;;;;;;33.02;32.33;99573.91;109142;1254;73314;-74
2023/06/29 07:58:20;;;;;;;6.30;2.00;;;;;;;33.54;31.37;99570.51;109138;1254;57776;-73
2023/06/29 08:01:10;;;;;;;7.00;1.50;;;;;;;34.31;29.98;99568.42;109274;1254;59070;-73
2023/06/29 08:03:57;;;;;;;7.50;1.90;;;;;;;34.67;28.97;99564.99;109378;1254;72960;-78
2023/06/29 08:06:50;;;;;;;7.40;1.80;;;;;;;35.01;28.66;99559.90;109242;1255;69341;-75
2023/06/29 08:09:38;;;;;;;6.90;2.80;;;;;;;35.61;28.16;99554.29;109311;1256;72617;-75
2023/06/29 08:12:25;;;;;;;8.40;1.80;;;;;;;36.06;27.28;99552.19;109274;1255;57433;-75
2023/06/29 08:15:12;;;;;;;7.50;1.70;;;;;;;36.28;26.03;99548.56;109327;1255;58820;-74
2023/06/29 08:17:59;;;;;;;9.30;1.80;;;;;;;36.21;25.66;99546.57;109114;1254;71804;-75
2023/06/29 08:20:48;;;;;;;5.90;1.60;;;;;;;35.96;25.89;99548.75;109204;1254;68492;-72
2023/06/29 08:23:35;;;;;;;6.80;1.80;;;;;;;-29.69;14.88;59729.09;108161;1255;1001651;-74
2023/06/29 08:26:24;;;;;;;5.70;1.50;;;;;;;-128.00;-1.00;-1.00;106443;1254;1010303;-78
2023/06/29 08:29:12;;;;;;;6.10;1.50;;;;;;;-128.00;-1.00;-1.00;106183;1254;1010911;-75
2023/06/29 08:31:58;;;;;;;6.80;1.50;;;;;;;-128.00;-1.00;-1.00;106419;1256;1012734;-74
2023/06/29 08:34:45;;;;;;;6.30;1.60;;;;;;;-128.00;-1.00;-1.00;106540;1255;1011750;-78
2023/06/29 08:37:32;;;;;;;6.40;1.70;;;;;;;-128.00;-1.00;-1.00;106422;1256;1013134;-74
2023/06/29 08:40:22;;;;;;;6.00;1.60;;;;;;;-128.00;-1.00;-1.00;106641;1254;1009700;-74
2023/06/29 08:43:11;;;;;;;6.10;1.60;;;;;;;-128.00;-1.00;-1.00;106661;1254;1011637;-76
2023/06/29 08:46:02;;;;;;;6.60;2.20;;;;;;;-128.00;-1.00;-1.00;106669;1256;1012436;-74
2023/06/29 08:48:50;;;;;;;6.80;1.80;;;;;;;-128.00;-1.00;-1.00;106631;1255;1012644;-74
2023/06/29 08:51:39;;;;;;;5.80;1.60;;;;;;;-128.00;-1.00;-1.00;106643;1254;1013686;-76
2023/06/29 08:54:26;;;;;;;7.90;2.10;;;;;;;-128.00;-1.00;-1.00;106633;1254;1009694;-74
2023/06/29 08:57:15;;;;;;;8.10;1.70;;;;;;;-128.00;-1.00;-1.00;106510;1255;1010952;-74
2023/06/29 09:00:04;;;;;;;6.90;1.90;;;;;;;-128.00;-1.00;-1.00;106593;1256;1012469;-72
2023/06/29 09:02:52;;;;;;;8.00;2.10;;;;;;;-128.00;-1.00;-1.00;106500;1259;1013334;-75
2023/06/29 09:05:39;;;;;;;5.90;1.50;;;;;;;-128.00;-1.00;-1.00;106541;1254;1013810;-74
2023/06/29 09:08:28;;;;;;;6.50;1.80;;;;;;;-128.00;-1.00;-1.00;106490;1254;1010395;-73
2023/06/29 09:11:15;;;;;;;6.70;1.60;;;;;;;-128.00;-1.00;-1.00;106756;1254;1010769;-76
2023/06/29 09:14:05;;;;;;;7.40;1.60;;;;;;;-128.00;-1.00;-1.00;106598;1254;1012853;-72
2023/06/29 09:17:01;;;;;;;7.70;1.70;;;;;;;-128.00;-1.00;-1.00;106648;1254;1013208;-79
2023/06/29 09:19:55;;;;;;;6.20;1.80;;;;;;;-128.00;-1.00;-1.00;106592;1254;1012646;-75
2023/06/29 09:22:43;;;;;;;5.50;1.60;;;;;;;-128.00;-1.00;-1.00;106603;1255;1010152;-74
2023/06/29 09:25:33;;;;;;;7.80;2.00;;;;;;;-128.00;-1.00;-1.00;106633;1255;1011022;-74
2023/06/29 09:28:22;;;;;;;7.80;1.90;;;;;;;-128.00;-1.00;-1.00;106551;1254;1012825;-72
2023/06/29 09:31:10;;;;;;;7.40;1.70;;;;;;;-128.00;-1.00;-1.00;106520;1260;1012659;-74
2023/06/29 09:34:26;;;;;;;10.90;3.40;;;;;;;-128.00;-1.00;-1.00;106432;1254;1013215;-78
2023/06/29 09:37:16;;;;;;;6.10;1.80;;;;;;;-128.00;-1.00;-1.00;106475;1257;1010209;-74
2023/06/29 09:40:09;;;;;;;7.80;1.70;;;;;;;-128.00;-1.00;-1.00;106608;1255;1011782;-74
2023/06/29 09:42:56;;;;;;;11.00;2.20;;;;;;;-128.00;-1.00;-1.00;106640;1254;1012507;-71
2023/06/29 09:45:42;;;;;;;5.90;1.60;;;;;;;-128.00;-1.00;-1.00;106574;1254;1012249;-74
2023/06/29 09:48:30;;;;;;;5.30;1.30;;;;;;;-128.00;-1.00;-1.00;106520;1254;1013400;-73
2023/06/29 09:51:22;;;;;;;6.10;1.40;;;;;;;-128.00;-1.00;-1.00;106632;1254;1010221;-74
2023/06/29 09:54:13;;;;;;;6.40;1.50;;;;;;;-128.00;-1.00;-1.00;106517;1254;1010868;-74
2023/06/29 09:57:02;;;;;;;5.80;1.60;;;;;;;-128.00;-1.00;-1.00;106579;1254;1012302;-75
2023/06/29 09:59:49;;;;;;;8.40;1.50;;;;;;;-128.00;-1.00;-1.00;106647;1254;1013038;-74
2023/06/29 10:02:36;;;;;;;6.70;1.30;;;;;;;-128.00;-1.00;-1.00;106595;1254;1013365;-76
2023/06/29 10:05:23;;;;;;;7.30;1.30;;;;;;;-128.00;-1.00;-1.00;106504;1254;1009514;-75
2023/06/29 10:08:14;;;;;;;6.40;1.20;;;;;;;-128.00;-1.00;-1.00;106466;1254;1010824;-74
2023/06/29 10:11:03;;;;;;;6.20;1.40;;;;;;;-128.00;-1.00;-1.00;106467;1254;1012771;-75
2023/06/29 10:13:53;;;;;;;5.80;1.20;;;;;;;-128.00;-1.00;-1.00;106459;1258;1011754;-72
2023/06/29 10:16:45;;;;;;;5.40;1.30;;;;;;;-128.00;-1.00;-1.00;106563;1256;1012260;-76
2023/06/29 10:19:34;;;;;;;6.70;1.40;;;;;;;-128.00;-1.00;-1.00;106433;1256;1009751;-76
2023/06/29 10:22:21;;;;;;;7.00;1.20;;;;;;;-128.00;-1.00;-1.00;106551;1254;1010304;-75
2023/06/29 10:25:14;;;;;;;5.80;1.20;;;;;;;-128.00;-1.00;-1.00;106633;1254;1012970;-76
2023/06/29 10:28:02;;;;;;;5.70;1.40;;;;;;;-128.00;-1.00;-1.00;106583;1254;1012717;-78
2023/06/29 10:30:50;;;;;;;9.60;1.60;;;;;;;-128.00;-1.00;-1.00;106456;1255;1013441;-75
2023/06/29 10:33:51;;;;;;;8.00;1.40;;;;;;;-128.00;-1.00;-1.00;106359;1256;1009166;-74
2023/06/29 10:36:48;;;;;;;7.40;1.40;;;;;;;-128.00;-1.00;-1.00;106436;1256;1010941;-74
2023/06/29 10:39:41;;;;;;;5.40;1.20;;;;;;;-128.00;-1.00;-1.00;106546;1254;1013154;-75
2023/06/29 10:42:50;;;;;;;5.50;1.20;;;;;;;-128.00;-1.00;-1.00;106498;1259;1012389;-71
2023/06/29 10:45:39;;;;;;;5.70;1.30;;;;;;;-128.00;-1.00;-1.00;106042;1262;1012955;-75
2023/06/29 10:48:25;;;;;;;8.10;1.40;;;;;;;-128.00;-1.00;-1.00;106066;1262;1009686;-73
2023/06/29 10:51:31;;;;;;;6.40;1.30;;;;;;;-128.00;-1.00;-1.00;105993;1264;1010768;-72
2023/06/29 10:54:22;;;;;;;5.60;1.20;;;;;;;-128.00;-1.00;-1.00;105829;1267;1012738;-74
2023/06/29 10:57:10;;;;;;;6.00;1.40;;;;;;;-128.00;-1.00;-1.00;105775;1268;1013464;-74
2023/06/29 10:59:56;;;;;;;6.30;1.30;;;;;;;-128.00;-1.00;-1.00;105844;1267;1013082;-73
2023/06/29 11:02:47;;;;;;;5.80;1.40;;;;;;;-128.00;-1.00;-1.00;105826;1267;1010141;-73
2023/06/29 11:05:35;;;;;;;5.30;1.60;;;;;;;-128.00;-1.00;-1.00;105834;1268;1010664;-74
2023/06/29 11:08:24;;;;;;;6.00;1.40;;;;;;;-128.00;-1.00;-1.00;105926;1268;1013102;-74
2023/06/29 11:11:14;;;;;;;6.20;1.80;;;;;;;-128.00;-1.00;-1.00;105874;1268;1013536;-73
2023/06/29 11:14:03;;;;;;;8.50;1.50;;;;;;;-128.00;-1.00;-1.00;105886;1267;1013424;-77
2023/06/29 11:16:54;;;;;;;5.90;1.50;;;;;;;-128.00;-1.00;-1.00;105845;1267;1010105;-78
2023/06/29 11:19:45;;;;;;;6.20;1.40;;;;;;;-128.00;-1.00;-1.00;105849;1267;1011348;-78
2023/06/29 11:22:33;;;;;;;5.40;1.40;;;;;;;-128.00;-1.00;-1.00;106104;1258;1012705;-74
2023/06/29 11:25:19;;;;;;;6.60;1.70;;;;;;;-128.00;-1.00;-1.00;106435;1254;1011975;-74
2023/06/29 11:28:06;;;;;;;6.20;1.30;;;;;;;-128.00;-1.00;-1.00;106469;1254;1013511;-75
2023/06/29 11:30:55;;;;;;;6.70;1.60;;;;;;;-128.00;-1.00;-1.00;106276;1258;1009311;-76
2023/06/29 11:33:52;;;;;;;7.50;1.70;;;;;;;-128.00;-1.00;-1.00;106318;1259;1011052;-77
2023/06/29 11:36:39;;;;;;;7.40;1.50;;;;;;;-128.00;-1.00;-1.00;106215;1260;1012414;-76
2023/06/29 11:39:26;;;;;;;6.00;1.50;;;;;;;-128.00;-1.00;-1.00;106207;1264;1012272;-76
2023/06/29 11:42:21;;;;;;;7.50;1.50;;;;;;;-128.00;-1.00;-1.00;106268;1259;1013659;-74
2023/06/29 11:45:09;;;;;;;6.60;1.60;;;;;;;-128.00;-1.00;-1.00;106237;1259;1009766;-75
2023/06/29 11:47:58;;;;;;;6.00;1.70;;;;;;;-128.00;-1.00;-1.00;106309;1261;1010130;-74
2023/06/29 11:50:48;;;;;;;7.60;1.70;;;;;;;-128.00;-1.00;-1.00;106277;1259;1013213;-76
2023/06/29 11:53:35;;;;;;;6.00;1.70;;;;;;;-128.00;-1.00;-1.00;106300;1264;1011953;-76
2023/06/29 11:56:36;;;;;;;6.20;1.80;;;;;;;-128.00;-1.00;-1.00;106285;1259;1012529;-76
2023/06/29 11:59:25;;;;;;;7.60;1.60;;;;;;;-128.00;-1.00;-1.00;106280;1260;1010027;-73
2023/06/29 12:02:13;;;;;;;5.80;1.60;;;;;;;-128.00;-1.00;-1.00;106429;1254;1010377;-74
2023/06/29 12:05:04;;;;;;;6.20;1.60;;;;;;;-128.00;-1.00;-1.00;106568;1254;1013381;-74
2023/06/29 12:07:51;;;;;;;6.70;2.20;;;;;;;-128.00;-1.00;-1.00;106565;1254;1013186;-74
2023/06/29 12:10:39;;;;;;;9.30;1.50;;;;;;;-128.00;-1.00;-1.00;106568;1254;1012678;-75
2023/06/29 12:13:25;;;;;;;6.90;1.50;;;;;;;-128.00;-1.00;-1.00;106445;1254;1009938;-75
2023/06/29 12:16:12;;;;;;;6.00;1.70;;;;;;;-128.00;-1.00;-1.00;106554;1255;1011250;-73
2023/06/29 12:19:10;;;;;;;8.30;1.80;;;;;;;-128.00;-1.00;-1.00;106751;1254;1013056;-73
2023/06/29 12:21:57;;;;;;;6.20;1.90;;;;;;;-128.00;-1.00;-1.00;106473;1255;1013368;-76
2023/06/29 12:24:50;;;;;;;6.10;1.80;;;;;;;-128.00;-1.00;-1.00;106570;1255;1013384;-75
2023/06/29 12:27:39;;;;;;;5.60;1.50;;;;;;;-128.00;-1.00;-1.00;106597;1254;1010428;-74
2023/06/29 12:30:26;;;;;;;6.40;1.70;;;;;;;-128.00;-1.00;-1.00;106563;1254;1011064;-74
2023/06/29 12:33:14;;;;;;;6.10;1.60;;;;;;;-128.00;-1.00;-1.00;106413;1254;1013449;-74
2023/06/29 12:36:01;;;;;;;6.20;2.00;;;;;;;-128.00;-1.00;-1.00;106464;1262;1013661;-75
2023/06/29 12:38:49;;;;;;;7.90;1.60;;;;;;;-128.00;-1.00;-1.00;106617;1254;1013282;-73
2023/06/29 12:41:36;;;;;;;7.00;2.10;;;;;;;-128.00;-1.00;-1.00;106539;1254;1010366;-73
2023/06/29 12:44:22;;;;;;;6.70;1.60;;;;;;;-128.00;-1.00;-1.00;106514;1254;1011036;-73
2023/06/29 12:47:09;;;;;;;6.90;1.60;;;;;;;-128.00;-1.00;-1.00;106414;1255;1012690;-72
2023/06/29 12:49:57;;;;;;;7.30;2.00;;;;;;;-128.00;-1.00;-1.00;106398;1254;1012698;-70